Flight Track Log - Related Links

Times and Time Zones

All times are in EDT time to prevent confusion due to time zone crossing. See the CCA4491 flight status page for this flight to view local times or setup timezone preferences in your user account.

Time Position Orientation Groundspeed Altitude Reporting Facility
EDT Latitude Longitude Course Direction KTS MPH feet Rate Location/Type
Fri 06:43:00 PM 30.8311 103.9184 354° North  Level Estimated
Fri 06:44:00 PM 30.9153 103.9089 354° North  Level Estimated
Fri 06:45:00 PM 30.9995 103.8993 354° North  Level Estimated
Fri 06:46:00 PM 31.0837 103.8896 354° North  Level Estimated
Fri 06:47:00 PM 31.1679 103.8800 354° North  Level Estimated
Fri 06:48:00 PM 31.2521 103.8704 354° North  Level Estimated
Fri 06:49:00 PM 31.3363 103.8607 354° North  Level Estimated
Fri 06:50:00 PM 31.4205 103.8510 354° North  Level Estimated
Fri 06:51:00 PM 31.5047 103.8413 354° North  Level Estimated
Fri 06:52:00 PM 31.5889 103.8316 354° North  Level Estimated
Fri 06:53:00 PM 31.6731 103.8218 354° North  Level Estimated
Fri 06:54:00 PM 31.7573 103.8121 354° North  Level Estimated
Fri 06:55:00 PM 31.8415 103.8023 354° North  Level Estimated
Fri 06:56:00 PM 31.9257 103.7925 354° North  Level Estimated
Fri 06:57:00 PM 32.0099 103.7827 354° North  Level Estimated
Fri 06:58:00 PM 32.0941 103.7729 354° North  Level Estimated
Fri 06:59:00 PM 32.1783 103.7630 354° North  Level Estimated
Fri 07:00:00 PM 32.2625 103.7532 354° North  Level Estimated
Fri 07:01:00 PM 32.3467 103.7433 354° North  Level Estimated
Fri 07:02:00 PM 32.4309 103.7334 354° North  Level Estimated
Fri 07:03:00 PM 32.5151 103.7235 354° North  Level Estimated
Fri 07:04:00 PM 32.5993 103.7135 354° North  Level Estimated
Fri 07:05:00 PM 32.6834 103.7036 354° North  Level Estimated
Fri 07:06:00 PM 32.7676 103.6936 354° North  Level Estimated
Fri 07:07:00 PM 32.8518 103.6836 354° North  Level Estimated
Fri 07:08:00 PM 32.8570 103.6830 354° North  Level Estimated
Fri 07:09:00 PM 32.8570 103.6830 North  Level Estimated
Fri 07:10:00 PM 32.8570 103.6830 North  Level Estimated
Fri 07:11:00 PM 32.8570 103.6830 North  Level Estimated
Fri 07:12:00 PM 32.8570 103.6830 North  Level Estimated
Fri 07:13:00 PM 32.8570 103.6830 North  Level Estimated
Fri 07:14:00 PM 32.8570 103.6830 North  Level Estimated
Fri 07:15:00 PM 32.8570 103.6830 North  Level Estimated
Fri 07:16:00 PM 32.8570 103.6830 North  Level Estimated

Login

Don't have an account? Register now (free) for customized features, flight alerts, and more!